Eendracht — PDVN — position and weather

sailwx.info

Track history (hours):
 
Tides and Currents Weather Stations Pressure Air Temp Water Temp Dewpoint Dewpoint Depression Visibility Wind Speed Wind Dir Waves Ship Positions

Eendracht (Netherlands)

Last reported at 2016-Jun-29 10:33 UTC. Time now 2016-Jun-29 11:02 UTC.
Position N 53°27' E 006°49'.

Length 59 m; beam 12 m; draft 5 m.

MMSI: 244543000.

Date/timePositionNaut miles runAvg speedWind from/ knotsBaromVisibWave heightAir tempDewpointWater temp
2016-Jun-29 10:33N 53°27' E 006°49'0 0.0
2016-Jun-29 09:33N 53°27' E 006°49'0 0.0
2016-Jun-29 08:33N 53°27' E 006°49'0 0.0
2016-Jun-29 07:30N 53°27' E 006°49'0 0.0
2016-Jun-29 06:33N 53°27' E 006°49'3 2.6
2016-Jun-29 05:33N 53°30' E 006°48'6 6.1
2016-Jun-29 04:33N 53°34' E 006°40'6 5.6
2016-Jun-29 03:33N 53°37' E 006°32'6 6.2
2016-Jun-29 02:33N 53°37' E 006°21'6 6.0
2016-Jun-29 01:33N 53°37' E 006°11'6 6.4
2016-Jun-29 00:33N 53°38' E 006°00'6 6.1
2016-Jun-28 23:33N 53°38' E 005°50'6 5.8
2016-Jun-28 22:33N 53°36' E 005°41'5 5.2
2016-Jun-28 21:33N 53°34' E 005°33'3 3.0
2016-Jun-28 20:33N 53°33' E 005°28'2 2.3
2016-Jun-28 19:33N 53°33' E 005°24'2 1.9
2016-Jun-28 18:33N 53°32' E 005°21'1 1.1
2016-Jun-28 17:33N 53°32' E 005°19'3 2.5
2016-Jun-28 16:33N 53°32' E 005°15'2 1.9
2016-Jun-28 15:33N 53°31' E 005°12'3 3.4
2016-Jun-28 14:33N 53°29' E 005°07'5 4.5
2016-Jun-28 13:33N 53°27' E 004°60'23 5.7
2016-Jun-28 09:33N 53°11' E 004°34'7 7.0
2016-Jun-28 08:32N 53°05' E 004°28'7 6.5
2016-Jun-28 07:30N 52°59' E 004°22'5 5.5
2016-Jun-28 06:33N 52°54' E 004°19'10 4.8
2016-Jun-28 04:32N 52°46' E 004°11'4 4.6
2016-Jun-28 03:33N 52°42' E 004°07'5 4.6
2016-Jun-28 02:33N 52°39' E 004°01'4 4.5
2016-Jun-28 01:33N 52°36' E 003°56'5 4.7
2016-Jun-28 00:33N 52°32' E 003°51'5 5.1
2016-Jun-27 23:33N 52°28' E 003°46'6 5.7
2016-Jun-27 22:33N 52°24' E 003°41'6 6.1
2016-Jun-27 21:33N 52°18' E 003°38'6 6.4
2016-Jun-27 20:33N 52°12' E 003°34'19 6.1
2016-Jun-27 17:23N 51°53' E 003°27'8 1.7
2016-Jun-27 12:29N 51°48' E 003°16'2 2.6
2016-Jun-27 11:33N 51°46' E 003°16'6 5.9
2016-Jun-27 10:33N 51°40' E 003°19'8 8.1
2016-Jun-27 09:34N 51°33' E 003°26'9 8.8
2016-Jun-27 08:34N 51°26' E 003°34'1 0.7
2016-Jun-27 07:33N 51°27' E 003°35'0 0.0
2016-Jun-27 06:33N 51°27' E 003°35'0 0.0
2016-Jun-27 05:33N 51°27' E 003°35'0 0.0
2016-Jun-27 04:33N 51°27' E 003°35'0 0.0
2016-Jun-27 03:33N 51°27' E 003°35'0 0.0
2016-Jun-27 02:33N 51°27' E 003°35'0 0.0
2016-Jun-27 01:33N 51°27' E 003°35'0 0.0
2016-Jun-27 00:33N 51°27' E 003°35'0 0.0
2016-Jun-26 23:30N 51°27' E 003°35'0 0.0
2016-Jun-26 22:33N 51°27' E 003°35'0 0.0
2016-Jun-26 21:33N 51°27' E 003°35'0 0.0
2016-Jun-26 20:33N 51°27' E 003°35'0 0.0
2016-Jun-26 19:33N 51°27' E 003°35'0 0.0
2016-Jun-26 18:33N 51°27' E 003°35'0 0.0
2016-Jun-26 17:33N 51°27' E 003°35'0 0.0
2016-Jun-26 16:33N 51°27' E 003°35'0 0.0
2016-Jun-26 15:33N 51°27' E 003°35'0 0.0
2016-Jun-26 14:32N 51°27' E 003°35'0 0.0
2016-Jun-26 13:32N 51°27' E 003°35'1 0.5
2016-Jun-26 12:33N 51°27' E 003°36'3 3.1
2016-Jun-26 11:33N 51°27' E 003°41'1 1.2
2016-Jun-26 10:33N 51°26' E 003°39'2 2.3
2016-Jun-26 09:33N 51°27' E 003°36'0 0.5
2016-Jun-26 08:32N 51°27' E 003°35'0 0.0
2016-Jun-26 07:32N 51°27' E 003°35'0 0.0
2016-Jun-26 06:32N 51°27' E 003°35'0 0.0
2016-Jun-26 05:32N 51°27' E 003°35'0 0.0
2016-Jun-26 04:32N 51°27' E 003°35'0 0.0
2016-Jun-26 03:32N 51°27' E 003°35'0 0.0
2016-Jun-26 02:32N 51°27' E 003°35'0 0.0
2016-Jun-26 01:32N 51°27' E 003°35'0 0.0
2016-Jun-26 00:32N 51°27' E 003°35'0 0.0
2016-Jun-25 23:29N 51°27' E 003°35'0 0.0
2016-Jun-25 22:32N 51°27' E 003°35'0 0.0
2016-Jun-25 21:32N 51°27' E 003°35'0 0.0
2016-Jun-25 20:32N 51°27' E 003°35'0 0.0
2016-Jun-25 19:32N 51°27' E 003°35'0 0.0
2016-Jun-25 18:32N 51°27' E 003°35'0 0.0
2016-Jun-25 17:32N 51°27' E 003°35'0 0.0
2016-Jun-25 16:32N 51°27' E 003°35'0 0.0
2016-Jun-25 15:32N 51°27' E 003°35'0 0.0
2016-Jun-25 14:31N 51°27' E 003°35'0 0.0
2016-Jun-25 13:33N 51°27' E 003°35'3 3.3
2016-Jun-25 12:33N 51°27' E 003°40'3 2.9
2016-Jun-25 11:33N 51°26' E 003°36'7 6.5
2016-Jun-25 10:33N 51°30' E 003°28'7 6.6
2016-Jun-25 09:33N 51°36' E 003°22'5 4.9
2016-Jun-25 08:27N 51°40' E 003°18'4 4.3
2016-Jun-25 07:31N 51°44' E 003°16'19 3.8
2016-Jun-25 02:29N 52°03' E 003°25'4 4.7
2016-Jun-25 01:33N 52°03' E 003°32'4 4.5
2016-Jun-25 00:33N 52°03' E 003°40'5 5.0
2016-Jun-24 23:33N 52°03' E 003°48'5 4.7
2016-Jun-24 22:34N 52°02' E 003°55'6 6.5
2016-Jun-24 21:33N 51°59' E 004°05'8 8.3
2016-Jun-24 20:33N 51°54' E 004°16'6 6.2
2016-Jun-24 19:33N 51°54' E 004°26'2 1.5
2016-Jun-24 18:32N 51°54' E 004°28'0 0.0
2016-Jun-24 17:32N 51°54' E 004°28'0 0.0
2016-Jun-24 16:32N 51°54' E 004°28'0 0.0
2016-Jun-24 15:32N 51°54' E 004°28'0 0.0
2016-Jun-24 14:33N 51°54' E 004°28'0 0.4
2016-Jun-24 13:33N 51°54' E 004°28'1 1.2
2016-Jun-24 12:33N 51°54' E 004°26'1 1.3
2016-Jun-24 11:33N 51°53' E 004°24'4 4.4
2016-Jun-24 10:34N 51°54' E 004°17'0 0.3
2016-Jun-24 09:33N 51°54' E 004°18'6 5.5
2016-Jun-24 08:33N 51°54' E 004°26'1 1.2
2016-Jun-24 07:33N 51°54' E 004°28'0 0.0
2016-Jun-24 04:33N 51°54' E 004°28'0 0.0
2016-Jun-24 03:33N 51°54' E 004°28'0 0.0
2016-Jun-24 02:33N 51°54' E 004°28'0 0.0
2016-Jun-24 01:33N 51°54' E 004°28'0 0.0
2016-Jun-24 00:33N 51°54' E 004°28'0 0.0
2016-Jun-23 23:33N 51°54' E 004°28'0 0.0
2016-Jun-23 22:33N 51°54' E 004°28'0 0.0
2016-Jun-23 21:33N 51°54' E 004°28'0 0.0
2016-Jun-23 20:33N 51°54' E 004°28'0 0.0
2016-Jun-23 19:33N 51°54' E 004°28'0 0.0
2016-Jun-23 18:33N 51°54' E 004°28'0 0.0
2016-Jun-23 17:33N 51°54' E 004°28'0 0.0
2016-Jun-23 16:33N 51°54' E 004°28'0 0.0
2016-Jun-23 15:32N 51°54' E 004°28'0 0.0
2016-Jun-23 14:32N 51°54' E 004°28'0 0.0
2016-Jun-23 13:32N 51°54' E 004°28'0 0.0
2016-Jun-23 12:32N 51°54' E 004°28'0 0.0
2016-Jun-23 11:33N 51°54' E 004°28'0 0.0
2016-Jun-23 10:32N 51°54' E 004°28'0 0.0
2016-Jun-23 09:32N 51°54' E 004°28'1 1.4
2016-Jun-23 08:33N 51°54' E 004°26'5 4.8
2016-Jun-23 07:33N 51°54' E 004°18'9 4.6
2016-Jun-23 05:33N 51°59' E 004°06'5 4.6
2016-Jun-23 04:33N 52°03' E 004°05'5 5.4
2016-Jun-23 03:33N 52°09' E 004°07'4 3.9
2016-Jun-23 02:33N 52°12' E 004°11'5 4.6
2016-Jun-23 01:33N 52°16' E 004°15'4 4.4
2016-Jun-23 00:33N 52°19' E 004°19'5 5.3
2016-Jun-22 23:33N 52°24' E 004°23'5 4.9
2016-Jun-22 22:33N 52°28' E 004°27'5 4.6
2016-Jun-22 21:33N 52°33' E 004°28'5 4.8
2016-Jun-22 20:33N 52°38' E 004°30'5 4.8
2016-Jun-22 19:33N 52°42' E 004°31'4 4.5
2016-Jun-22 18:33N 52°47' E 004°31'4 4.4
2016-Jun-22 17:33N 52°51' E 004°31'4 4.1
2016-Jun-22 16:33N 52°55' E 004°31'5 4.8
2016-Jun-22 15:33N 53°00' E 004°30'3 3.3
2016-Jun-22 14:33N 53°03' E 004°33'2 1.5
2016-Jun-22 13:31N 53°03' E 004°36'5 5.2
2016-Jun-22 12:33N 53°05' E 004°28'7 1.4
2016-Jun-22 07:32N 53°11' E 004°23'4 3.9
2016-Jun-22 06:33N 53°14' E 004°26'10 4.4
2016-Jun-22 04:16N 53°23' E 004°33'11 5.9
2016-Jun-22 02:24N 53°31' E 004°47'6 7.1
2016-Jun-22 01:33N 53°33' E 004°56'8 7.5
2016-Jun-22 00:33N 53°36' E 005°08'7 7.1
2016-Jun-21 23:33N 53°39' E 005°19'6 5.9
2016-Jun-21 22:33N 53°40' E 005°29'6 5.5
2016-Jun-21 21:33N 53°42' E 005°38'6 5.7
2016-Jun-21 20:33N 53°44' E 005°47'6 5.9
2016-Jun-21 19:33N 53°45' E 005°56'6 6.1
2016-Jun-21 18:33N 53°47' E 006°06'7 6.9
2016-Jun-21 17:33N 53°50' E 006°17'8 8.0
2016-Jun-21 16:33N 53°52' E 006°30'9 8.5
2016-Jun-21 15:33N 53°54' E 006°44'8 8.4
2016-Jun-21 14:33N 53°56' E 006°58'8 7.8
2016-Jun-21 13:33N 53°58' E 007°10'7 7.1
2016-Jun-21 12:32N 53°60' E 007°22'6 6.3
2016-Jun-21 11:33N 54°01' E 007°33'6 5.8
2016-Jun-21 10:33N 54°02' E 007°42'5 5.5
2016-Jun-21 09:33N 54°02' E 007°52'6 6.4
2016-Jun-21 08:33N 54°01' E 008°03'7 6.5
2016-Jun-21 07:33N 54°01' E 008°14'18 9.1
2016-Jun-21 05:34N 53°54' E 008°42'1010.1
2016-Jun-21 04:34N 53°51' E 008°58'9 9.1
2016-Jun-21 03:33N 53°53' E 009°14'7 6.8
2016-Jun-21 02:33N 53°49' E 009°22'2 1.7
2016-Jun-21 01:31N 53°47' E 009°23'0 0.0
2016-Jun-21 00:31N 53°47' E 009°23'0 0.0
2016-Jun-20 23:31N 53°47' E 009°23'0 0.0
2016-Jun-20 22:31N 53°47' E 009°23'2 2.3
2016-Jun-20 21:33N 53°45' E 009°25'1010.0
2016-Jun-20 20:34N 53°37' E 009°34'1010.2
2016-Jun-20 19:33N 53°33' E 009°50'5 5.0
2016-Jun-20 18:32N 53°33' E 009°59'0 0.0
2016-Jun-20 17:32N 53°33' E 009°59'0 0.0
2016-Jun-20 16:32N 53°33' E 009°59'0 0.0
2016-Jun-20 15:32N 53°33' E 009°59'0 0.0
2016-Jun-20 14:32N 53°33' E 009°59'0 0.4
2016-Jun-20 13:34N 53°33' E 009°58'2 2.2
2016-Jun-20 12:34N 53°30' E 009°57'2 2.2
2016-Jun-20 11:31N 53°33' E 009°59'0 0.0
2016-Jun-20 10:31N 53°33' E 009°59'0 0.0
2016-Jun-20 09:31N 53°33' E 009°59'0 0.0
2016-Jun-20 08:31N 53°33' E 009°59'0 0.0
2016-Jun-20 07:31N 53°33' E 009°59'0 0.0
2016-Jun-20 06:31N 53°33' E 009°59'0 0.0
2016-Jun-20 05:31N 53°33' E 009°59'0 0.0
2016-Jun-20 04:31N 53°33' E 009°59'0 0.0
2016-Jun-20 03:31N 53°33' E 009°59'0 0.0
2016-Jun-20 02:31N 53°33' E 009°59'0 0.0
2016-Jun-20 01:31N 53°33' E 009°59'0 0.0
2016-Jun-20 00:31N 53°33' E 009°59'0 0.0
2016-Jun-19 23:31N 53°33' E 009°59'0 0.0
2016-Jun-19 22:31N 53°33' E 009°59'0 0.0
2016-Jun-19 21:31N 53°33' E 009°59'0 0.0
2016-Jun-19 20:31N 53°33' E 009°59'0 0.0
2016-Jun-19 19:31N 53°33' E 009°59'0 0.0
2016-Jun-19 18:31N 53°33' E 009°59'0 0.0
2016-Jun-19 17:31N 53°33' E 009°59'0 0.0
2016-Jun-19 16:31N 53°33' E 009°59'0 0.0
2016-Jun-19 15:31N 53°33' E 009°59'0 0.0
2016-Jun-19 14:31N 53°33' E 009°59'0 0.0
2016-Jun-19 13:31N 53°33' E 009°59'0 0.0
2016-Jun-19 12:31N 53°33' E 009°59'0 0.0
2016-Jun-19 11:31N 53°33' E 009°59'  
Track history (hours):
 
Tides and Currents Weather Stations Pressure Air Temp Water Temp Dewpoint Dewpoint Depression Visibility Wind Speed Wind Dir Waves Ship Positions

Eendracht (Netherlands)

Last reported at 2016-Jun-29 10:33 UTC. Time now 2016-Jun-29 11:02 UTC.
Position N 53°27' E 006°49'.

Length 59 m; beam 12 m; draft 5 m.

MMSI: 244543000.

Date/timePositionNaut miles runAvg speedWind from/ knotsBaromVisibWave heightAir tempDewpointWater temp
2016-Jun-29 10:33N 53°27' E 006°49'0 0.0
2016-Jun-29 09:33N 53°27' E 006°49'0 0.0
2016-Jun-29 08:33N 53°27' E 006°49'0 0.0
2016-Jun-29 07:30N 53°27' E 006°49'0 0.0
2016-Jun-29 06:33N 53°27' E 006°49'3 2.6
2016-Jun-29 05:33N 53°30' E 006°48'6 6.1
2016-Jun-29 04:33N 53°34' E 006°40'6 5.6
2016-Jun-29 03:33N 53°37' E 006°32'6 6.2
2016-Jun-29 02:33N 53°37' E 006°21'6 6.0
2016-Jun-29 01:33N 53°37' E 006°11'6 6.4
2016-Jun-29 00:33N 53°38' E 006°00'6 6.1
2016-Jun-28 23:33N 53°38' E 005°50'6 5.8
2016-Jun-28 22:33N 53°36' E 005°41'5 5.2
2016-Jun-28 21:33N 53°34' E 005°33'3 3.0
2016-Jun-28 20:33N 53°33' E 005°28'2 2.3
2016-Jun-28 19:33N 53°33' E 005°24'2 1.9
2016-Jun-28 18:33N 53°32' E 005°21'1 1.1
2016-Jun-28 17:33N 53°32' E 005°19'3 2.5
2016-Jun-28 16:33N 53°32' E 005°15'2 1.9
2016-Jun-28 15:33N 53°31' E 005°12'3 3.4
2016-Jun-28 14:33N 53°29' E 005°07'5 4.5
2016-Jun-28 13:33N 53°27' E 004°60'23 5.7
2016-Jun-28 09:33N 53°11' E 004°34'7 7.0
2016-Jun-28 08:32N 53°05' E 004°28'7 6.5
2016-Jun-28 07:30N 52°59' E 004°22'5 5.5
2016-Jun-28 06:33N 52°54' E 004°19'10 4.8
2016-Jun-28 04:32N 52°46' E 004°11'4 4.6
2016-Jun-28 03:33N 52°42' E 004°07'5 4.6
2016-Jun-28 02:33N 52°39' E 004°01'4 4.5
2016-Jun-28 01:33N 52°36' E 003°56'5 4.7
2016-Jun-28 00:33N 52°32' E 003°51'5 5.1
2016-Jun-27 23:33N 52°28' E 003°46'6 5.7
2016-Jun-27 22:33N 52°24' E 003°41'6 6.1
2016-Jun-27 21:33N 52°18' E 003°38'6 6.4
2016-Jun-27 20:33N 52°12' E 003°34'19 6.1
2016-Jun-27 17:23N 51°53' E 003°27'8 1.7
2016-Jun-27 12:29N 51°48' E 003°16'2 2.6
2016-Jun-27 11:33N 51°46' E 003°16'6 5.9
2016-Jun-27 10:33N 51°40' E 003°19'8 8.1
2016-Jun-27 09:34N 51°33' E 003°26'9 8.8
2016-Jun-27 08:34N 51°26' E 003°34'1 0.7
2016-Jun-27 07:33N 51°27' E 003°35'0 0.0
2016-Jun-27 06:33N 51°27' E 003°35'0 0.0
2016-Jun-27 05:33N 51°27' E 003°35'0 0.0
2016-Jun-27 04:33N 51°27' E 003°35'0 0.0
2016-Jun-27 03:33N 51°27' E 003°35'0 0.0
2016-Jun-27 02:33N 51°27' E 003°35'0 0.0
2016-Jun-27 01:33N 51°27' E 003°35'0 0.0
2016-Jun-27 00:33N 51°27' E 003°35'0 0.0
2016-Jun-26 23:30N 51°27' E 003°35'0 0.0
2016-Jun-26 22:33N 51°27' E 003°35'0 0.0
2016-Jun-26 21:33N 51°27' E 003°35'0 0.0
2016-Jun-26 20:33N 51°27' E 003°35'0 0.0
2016-Jun-26 19:33N 51°27' E 003°35'0 0.0
2016-Jun-26 18:33N 51°27' E 003°35'0 0.0
2016-Jun-26 17:33N 51°27' E 003°35'0 0.0
2016-Jun-26 16:33N 51°27' E 003°35'0 0.0
2016-Jun-26 15:33N 51°27' E 003°35'0 0.0
2016-Jun-26 14:32N 51°27' E 003°35'0 0.0
2016-Jun-26 13:32N 51°27' E 003°35'1 0.5
2016-Jun-26 12:33N 51°27' E 003°36'3 3.1
2016-Jun-26 11:33N 51°27' E 003°41'1 1.2
2016-Jun-26 10:33N 51°26' E 003°39'2 2.3
2016-Jun-26 09:33N 51°27' E 003°36'0 0.5
2016-Jun-26 08:32N 51°27' E 003°35'0 0.0
2016-Jun-26 07:32N 51°27' E 003°35'0 0.0
2016-Jun-26 06:32N 51°27' E 003°35'0 0.0
2016-Jun-26 05:32N 51°27' E 003°35'0 0.0
2016-Jun-26 04:32N 51°27' E 003°35'0 0.0
2016-Jun-26 03:32N 51°27' E 003°35'0 0.0
2016-Jun-26 02:32N 51°27' E 003°35'0 0.0
2016-Jun-26 01:32N 51°27' E 003°35'0 0.0
2016-Jun-26 00:32N 51°27' E 003°35'0 0.0
2016-Jun-25 23:29N 51°27' E 003°35'0 0.0
2016-Jun-25 22:32N 51°27' E 003°35'0 0.0
2016-Jun-25 21:32N 51°27' E 003°35'0 0.0
2016-Jun-25 20:32N 51°27' E 003°35'0 0.0
2016-Jun-25 19:32N 51°27' E 003°35'0 0.0
2016-Jun-25 18:32N 51°27' E 003°35'0 0.0
2016-Jun-25 17:32N 51°27' E 003°35'0 0.0
2016-Jun-25 16:32N 51°27' E 003°35'0 0.0
2016-Jun-25 15:32N 51°27' E 003°35'0 0.0
2016-Jun-25 14:31N 51°27' E 003°35'0 0.0
2016-Jun-25 13:33N 51°27' E 003°35'3 3.3
2016-Jun-25 12:33N 51°27' E 003°40'3 2.9
2016-Jun-25 11:33N 51°26' E 003°36'7 6.5
2016-Jun-25 10:33N 51°30' E 003°28'7 6.6
2016-Jun-25 09:33N 51°36' E 003°22'5 4.9
2016-Jun-25 08:27N 51°40' E 003°18'4 4.3
2016-Jun-25 07:31N 51°44' E 003°16'19 3.8
2016-Jun-25 02:29N 52°03' E 003°25'4 4.7
2016-Jun-25 01:33N 52°03' E 003°32'4 4.5
2016-Jun-25 00:33N 52°03' E 003°40'5 5.0
2016-Jun-24 23:33N 52°03' E 003°48'5 4.7
2016-Jun-24 22:34N 52°02' E 003°55'6 6.5
2016-Jun-24 21:33N 51°59' E 004°05'8 8.3
2016-Jun-24 20:33N 51°54' E 004°16'6 6.2
2016-Jun-24 19:33N 51°54' E 004°26'2 1.5
2016-Jun-24 18:32N 51°54' E 004°28'0 0.0
2016-Jun-24 17:32N 51°54' E 004°28'0 0.0
2016-Jun-24 16:32N 51°54' E 004°28'0 0.0
2016-Jun-24 15:32N 51°54' E 004°28'0 0.0
2016-Jun-24 14:33N 51°54' E 004°28'0 0.4
2016-Jun-24 13:33N 51°54' E 004°28'1 1.2
2016-Jun-24 12:33N 51°54' E 004°26'1 1.3
2016-Jun-24 11:33N 51°53' E 004°24'4 4.4
2016-Jun-24 10:34N 51°54' E 004°17'0 0.3
2016-Jun-24 09:33N 51°54' E 004°18'6 5.5
2016-Jun-24 08:33N 51°54' E 004°26'1 1.2
2016-Jun-24 07:33N 51°54' E 004°28'0 0.0
2016-Jun-24 04:33N 51°54' E 004°28'0 0.0
2016-Jun-24 03:33N 51°54' E 004°28'0 0.0
2016-Jun-24 02:33N 51°54' E 004°28'0 0.0
2016-Jun-24 01:33N 51°54' E 004°28'0 0.0
2016-Jun-24 00:33N 51°54' E 004°28'0 0.0
2016-Jun-23 23:33N 51°54' E 004°28'0 0.0
2016-Jun-23 22:33N 51°54' E 004°28'0 0.0
2016-Jun-23 21:33N 51°54' E 004°28'0 0.0
2016-Jun-23 20:33N 51°54' E 004°28'0 0.0
2016-Jun-23 19:33N 51°54' E 004°28'0 0.0
2016-Jun-23 18:33N 51°54' E 004°28'0 0.0
2016-Jun-23 17:33N 51°54' E 004°28'0 0.0
2016-Jun-23 16:33N 51°54' E 004°28'0 0.0
2016-Jun-23 15:32N 51°54' E 004°28'0 0.0
2016-Jun-23 14:32N 51°54' E 004°28'0 0.0
2016-Jun-23 13:32N 51°54' E 004°28'0 0.0
2016-Jun-23 12:32N 51°54' E 004°28'0 0.0
2016-Jun-23 11:33N 51°54' E 004°28'0 0.0
2016-Jun-23 10:32N 51°54' E 004°28'0 0.0
2016-Jun-23 09:32N 51°54' E 004°28'1 1.4
2016-Jun-23 08:33N 51°54' E 004°26'5 4.8
2016-Jun-23 07:33N 51°54' E 004°18'9 4.6
2016-Jun-23 05:33N 51°59' E 004°06'5 4.6
2016-Jun-23 04:33N 52°03' E 004°05'5 5.4
2016-Jun-23 03:33N 52°09' E 004°07'4 3.9
2016-Jun-23 02:33N 52°12' E 004°11'5 4.6
2016-Jun-23 01:33N 52°16' E 004°15'4 4.4
2016-Jun-23 00:33N 52°19' E 004°19'5 5.3
2016-Jun-22 23:33N 52°24' E 004°23'5 4.9
2016-Jun-22 22:33N 52°28' E 004°27'5 4.6
2016-Jun-22 21:33N 52°33' E 004°28'5 4.8
2016-Jun-22 20:33N 52°38' E 004°30'5 4.8
2016-Jun-22 19:33N 52°42' E 004°31'4 4.5
2016-Jun-22 18:33N 52°47' E 004°31'4 4.4
2016-Jun-22 17:33N 52°51' E 004°31'4 4.1
2016-Jun-22 16:33N 52°55' E 004°31'5 4.8
2016-Jun-22 15:33N 53°00' E 004°30'3 3.3
2016-Jun-22 14:33N 53°03' E 004°33'2 1.5
2016-Jun-22 13:31N 53°03' E 004°36'5 5.2
2016-Jun-22 12:33N 53°05' E 004°28'7 1.4
2016-Jun-22 07:32N 53°11' E 004°23'4 3.9
2016-Jun-22 06:33N 53°14' E 004°26'10 4.4
2016-Jun-22 04:16N 53°23' E 004°33'11 5.9
2016-Jun-22 02:24N 53°31' E 004°47'6 7.1
2016-Jun-22 01:33N 53°33' E 004°56'8 7.5
2016-Jun-22 00:33N 53°36' E 005°08'7 7.1
2016-Jun-21 23:33N 53°39' E 005°19'6 5.9
2016-Jun-21 22:33N 53°40' E 005°29'6 5.5
2016-Jun-21 21:33N 53°42' E 005°38'6 5.7
2016-Jun-21 20:33N 53°44' E 005°47'6 5.9
2016-Jun-21 19:33N 53°45' E 005°56'6 6.1
2016-Jun-21 18:33N 53°47' E 006°06'7 6.9
2016-Jun-21 17:33N 53°50' E 006°17'8 8.0
2016-Jun-21 16:33N 53°52' E 006°30'9 8.5
2016-Jun-21 15:33N 53°54' E 006°44'8 8.4
2016-Jun-21 14:33N 53°56' E 006°58'8 7.8
2016-Jun-21 13:33N 53°58' E 007°10'7 7.1
2016-Jun-21 12:32N 53°60' E 007°22'6 6.3
2016-Jun-21 11:33N 54°01' E 007°33'6 5.8
2016-Jun-21 10:33N 54°02' E 007°42'5 5.5
2016-Jun-21 09:33N 54°02' E 007°52'6 6.4
2016-Jun-21 08:33N 54°01' E 008°03'7 6.5
2016-Jun-21 07:33N 54°01' E 008°14'18 9.1
2016-Jun-21 05:34N 53°54' E 008°42'1010.1
2016-Jun-21 04:34N 53°51' E 008°58'9 9.1
2016-Jun-21 03:33N 53°53' E 009°14'7 6.8
2016-Jun-21 02:33N 53°49' E 009°22'2 1.7
2016-Jun-21 01:31N 53°47' E 009°23'0 0.0
2016-Jun-21 00:31N 53°47' E 009°23'0 0.0
2016-Jun-20 23:31N 53°47' E 009°23'0 0.0
2016-Jun-20 22:31N 53°47' E 009°23'2 2.3
2016-Jun-20 21:33N 53°45' E 009°25'1010.0
2016-Jun-20 20:34N 53°37' E 009°34'1010.2
2016-Jun-20 19:33N 53°33' E 009°50'5 5.0
2016-Jun-20 18:32N 53°33' E 009°59'0 0.0
2016-Jun-20 17:32N 53°33' E 009°59'0 0.0
2016-Jun-20 16:32N 53°33' E 009°59'0 0.0
2016-Jun-20 15:32N 53°33' E 009°59'0 0.0
2016-Jun-20 14:32N 53°33' E 009°59'0 0.4
2016-Jun-20 13:34N 53°33' E 009°58'2 2.2
2016-Jun-20 12:34N 53°30' E 009°57'2 2.2
2016-Jun-20 11:31N 53°33' E 009°59'0 0.0
2016-Jun-20 10:31N 53°33' E 009°59'0 0.0
2016-Jun-20 09:31N 53°33' E 009°59'0 0.0
2016-Jun-20 08:31N 53°33' E 009°59'0 0.0
2016-Jun-20 07:31N 53°33' E 009°59'0 0.0
2016-Jun-20 06:31N 53°33' E 009°59'0 0.0
2016-Jun-20 05:31N 53°33' E 009°59'0 0.0
2016-Jun-20 04:31N 53°33' E 009°59'0 0.0
2016-Jun-20 03:31N 53°33' E 009°59'0 0.0
2016-Jun-20 02:31N 53°33' E 009°59'0 0.0
2016-Jun-20 01:31N 53°33' E 009°59'0 0.0
2016-Jun-20 00:31N 53°33' E 009°59'0 0.0
2016-Jun-19 23:31N 53°33' E 009°59'0 0.0
2016-Jun-19 22:31N 53°33' E 009°59'0 0.0
2016-Jun-19 21:31N 53°33' E 009°59'0 0.0
2016-Jun-19 20:31N 53°33' E 009°59'0 0.0
2016-Jun-19 19:31N 53°33' E 009°59'0 0.0
2016-Jun-19 18:31N 53°33' E 009°59'0 0.0
2016-Jun-19 17:31N 53°33' E 009°59'0 0.0
2016-Jun-19 16:31N 53°33' E 009°59'0 0.0
2016-Jun-19 15:31N 53°33' E 009°59'0 0.0
2016-Jun-19 14:31N 53°33' E 009°59'0 0.0
2016-Jun-19 13:31N 53°33' E 009°59'0 0.0
2016-Jun-19 12:31N 53°33' E 009°59'0 0.0
2016-Jun-19 11:31N 53°33' E 009°59'  

Dump ship's entire track history